sensor_id;sensor_type;location;lat;lon;timestamp;temperature;humidity
17152;DHT22;8691;50.828;4.700;2022-07-09T00:00:22;16.30;99.90
17152;DHT22;8691;50.828;4.700;2022-07-09T00:02:50;16.20;99.90
17152;DHT22;8691;50.828;4.700;2022-07-09T00:05:16;16.20;99.90
17152;DHT22;8691;50.828;4.700;2022-07-09T00:07:43;16.10;99.90
17152;DHT22;8691;50.828;4.700;2022-07-09T00:10:10;16.00;99.90
17152;DHT22;8691;50.828;4.700;2022-07-09T00:12:37;16.00;99.90
17152;DHT22;8691;50.828;4.700;2022-07-09T00:15:04;15.90;99.90
17152;DHT22;8691;50.828;4.700;2022-07-09T00:17:31;15.90;99.90
17152;DHT22;8691;50.828;4.700;2022-07-09T00:19:57;15.90;99.90
17152;DHT22;8691;50.828;4.700;2022-07-09T00:22:24;15.90;99.90
17152;DHT22;8691;50.828;4.700;2022-07-09T00:24:51;15.80;99.90
17152;DHT22;8691;50.828;4.700;2022-07-09T00:27:19;15.60;99.90
17152;DHT22;8691;50.828;4.700;2022-07-09T00:29:46;15.60;99.90
17152;DHT22;8691;50.828;4.700;2022-07-09T00:32:12;15.60;99.90
17152;DHT22;8691;50.828;4.700;2022-07-09T00:34:39;15.60;99.90
17152;DHT22;8691;50.828;4.700;2022-07-09T00:37:06;15.60;99.90
17152;DHT22;8691;50.828;4.700;2022-07-09T00:39:33;15.70;99.90
17152;DHT22;8691;50.828;4.700;2022-07-09T00:42:06;15.70;99.90
17152;DHT22;8691;50.828;4.700;2022-07-09T00:44:32;15.70;99.90
17152;DHT22;8691;50.828;4.700;2022-07-09T00:46:59;15.60;99.90
17152;DHT22;8691;50.828;4.700;2022-07-09T00:49:26;15.60;99.90
17152;DHT22;8691;50.828;4.700;2022-07-09T00:51:52;15.50;99.90
17152;DHT22;8691;50.828;4.700;2022-07-09T00:54:19;15.50;99.90
17152;DHT22;8691;50.828;4.700;2022-07-09T00:56:47;15.50;99.90
17152;DHT22;8691;50.828;4.700;2022-07-09T00:59:14;15.50;99.90
17152;DHT22;8691;50.828;4.700;2022-07-09T01:01:41;15.50;99.90
17152;DHT22;8691;50.828;4.700;2022-07-09T01:04:09;15.50;99.90
17152;DHT22;8691;50.828;4.700;2022-07-09T01:06:35;15.50;99.90
17152;DHT22;8691;50.828;4.700;2022-07-09T01:09:02;15.50;99.90
17152;DHT22;8691;50.828;4.700;2022-07-09T01:11:29;15.50;99.90
17152;DHT22;8691;50.828;4.700;2022-07-09T01:13:56;15.50;99.90
17152;DHT22;8691;50.828;4.700;2022-07-09T01:16:30;15.50;99.90
17152;DHT22;8691;50.828;4.700;2022-07-09T01:18:50;15.50;99.90
17152;DHT22;8691;50.828;4.700;2022-07-09T01:21:17;15.50;99.90
17152;DHT22;8691;50.828;4.700;2022-07-09T01:23:43;15.50;99.90
17152;DHT22;8691;50.828;4.700;2022-07-09T01:26:10;15.50;99.90
17152;DHT22;8691;50.828;4.700;2022-07-09T01:28:38;15.50;99.90
17152;DHT22;8691;50.828;4.700;2022-07-09T01:31:05;15.40;99.90
17152;DHT22;8691;50.828;4.700;2022-07-09T01:33:32;15.50;99.90
17152;DHT22;8691;50.828;4.700;2022-07-09T01:55:54;15.50;99.90
17152;DHT22;8691;50.828;4.700;2022-07-09T01:58:20;15.20;99.90
17152;DHT22;8691;50.828;4.700;2022-07-09T02:00:47;15.10;99.90
17152;DHT22;8691;50.828;4.700;2022-07-09T02:03:13;15.10;99.90
17152;DHT22;8691;50.828;4.700;2022-07-09T02:05:40;15.10;99.90
17152;DHT22;8691;50.828;4.700;2022-07-09T02:08:07;15.00;99.90
17152;DHT22;8691;50.828;4.700;2022-07-09T02:10:34;15.10;99.90
17152;DHT22;8691;50.828;4.700;2022-07-09T02:13:01;15.00;99.90
17152;DHT22;8691;50.828;4.700;2022-07-09T02:15:28;14.90;99.90
17152;DHT22;8691;50.828;4.700;2022-07-09T02:17:55;14.90;99.90
17152;DHT22;8691;50.828;4.700;2022-07-09T02:20:22;14.80;99.90
17152;DHT22;8691;50.828;4.700;2022-07-09T02:22:49;14.70;99.90
17152;DHT22;8691;50.828;4.700;2022-07-09T02:25:16;14.70;99.90
17152;DHT22;8691;50.828;4.700;2022-07-09T02:27:43;14.70;99.90
17152;DHT22;8691;50.828;4.700;2022-07-09T02:30:10;14.60;99.90
17152;DHT22;8691;50.828;4.700;2022-07-09T02:32:37;14.60;99.90
17152;DHT22;8691;50.828;4.700;2022-07-09T02:35:04;14.50;99.90
17152;DHT22;8691;50.828;4.700;2022-07-09T02:37:30;14.40;99.90
17152;DHT22;8691;50.828;4.700;2022-07-09T02:39:58;14.40;99.90
17152;DHT22;8691;50.828;4.700;2022-07-09T02:42:24;14.40;99.90
17152;DHT22;8691;50.828;4.700;2022-07-09T02:44:52;14.30;99.90
17152;DHT22;8691;50.828;4.700;2022-07-09T02:47:18;14.30;99.90
17152;DHT22;8691;50.828;4.700;2022-07-09T02:49:46;14.40;99.90
17152;DHT22;8691;50.828;4.700;2022-07-09T02:52:12;14.30;99.90
17152;DHT22;8691;50.828;4.700;2022-07-09T02:54:40;14.30;99.90
17152;DHT22;8691;50.828;4.700;2022-07-09T02:57:07;14.30;99.90
17152;DHT22;8691;50.828;4.700;2022-07-09T02:59:33;14.30;99.90
17152;DHT22;8691;50.828;4.700;2022-07-09T03:02:00;14.30;99.90
17152;DHT22;8691;50.828;4.700;2022-07-09T03:04:26;14.20;99.90
17152;DHT22;8691;50.828;4.700;2022-07-09T03:06:53;14.20;99.90
17152;DHT22;8691;50.828;4.700;2022-07-09T03:09:20;14.20;99.90
17152;DHT22;8691;50.828;4.700;2022-07-09T03:11:46;14.10;99.90
17152;DHT22;8691;50.828;4.700;2022-07-09T03:14:13;14.10;99.90
17152;DHT22;8691;50.828;4.700;2022-07-09T03:16:40;14.10;99.90
17152;DHT22;8691;50.828;4.700;2022-07-09T03:19:06;14.10;99.90
17152;DHT22;8691;50.828;4.700;2022-07-09T03:21:33;14.10;99.90
17152;DHT22;8691;50.828;4.700;2022-07-09T03:24:00;14.10;99.90
17152;DHT22;8691;50.828;4.700;2022-07-09T03:26:26;14.10;99.90
17152;DHT22;8691;50.828;4.700;2022-07-09T03:28:53;14.10;99.90
17152;DHT22;8691;50.828;4.700;2022-07-09T03:31:20;14.10;99.90
17152;DHT22;8691;50.828;4.700;2022-07-09T03:33:47;14.20;99.90
17152;DHT22;8691;50.828;4.700;2022-07-09T03:36:13;14.20;99.90
17152;DHT22;8691;50.828;4.700;2022-07-09T03:38:40;14.10;99.90
17152;DHT22;8691;50.828;4.700;2022-07-09T03:41:07;14.10;99.90
17152;DHT22;8691;50.828;4.700;2022-07-09T03:43:34;14.10;99.90
17152;DHT22;8691;50.828;4.700;2022-07-09T03:46:01;14.10;99.90
17152;DHT22;8691;50.828;4.700;2022-07-09T03:48:28;14.10;99.90
17152;DHT22;8691;50.828;4.700;2022-07-09T03:50:55;14.20;99.90
17152;DHT22;8691;50.828;4.700;2022-07-09T03:53:21;14.30;99.90
17152;DHT22;8691;50.828;4.700;2022-07-09T03:55:48;14.40;99.90
17152;DHT22;8691;50.828;4.700;2022-07-09T03:58:14;14.60;99.90
17152;DHT22;8691;50.828;4.700;2022-07-09T04:00:42;14.80;99.90
17152;DHT22;8691;50.828;4.700;2022-07-09T04:03:09;14.80;99.90
17152;DHT22;8691;50.828;4.700;2022-07-09T04:05:36;15.00;99.90
17152;DHT22;8691;50.828;4.700;2022-07-09T04:08:02;15.20;99.90
17152;DHT22;8691;50.828;4.700;2022-07-09T04:10:29;15.30;99.90
17152;DHT22;8691;50.828;4.700;2022-07-09T04:12:56;15.30;99.90
17152;DHT22;8691;50.828;4.700;2022-07-09T04:15:23;15.30;99.90
17152;DHT22;8691;50.828;4.700;2022-07-09T04:17:50;15.30;99.90
17152;DHT22;8691;50.828;4.700;2022-07-09T04:20:17;15.40;99.90
17152;DHT22;8691;50.828;4.700;2022-07-09T04:22:44;15.40;99.90
17152;DHT22;8691;50.828;4.700;2022-07-09T04:25:11;15.50;99.90
17152;DHT22;8691;50.828;4.700;2022-07-09T04:27:38;15.50;99.90
17152;DHT22;8691;50.828;4.700;2022-07-09T04:30:05;15.60;99.90
17152;DHT22;8691;50.828;4.700;2022-07-09T04:32:31;15.70;99.90
17152;DHT22;8691;50.828;4.700;2022-07-09T04:34:58;16.00;99.90
17152;DHT22;8691;50.828;4.700;2022-07-09T04:37:25;16.00;99.90
17152;DHT22;8691;50.828;4.700;2022-07-09T04:39:52;16.30;99.90
17152;DHT22;8691;50.828;4.700;2022-07-09T04:42:19;16.30;99.90
17152;DHT22;8691;50.828;4.700;2022-07-09T04:44:46;16.60;99.90
17152;DHT22;8691;50.828;4.700;2022-07-09T04:47:13;16.50;99.90
17152;DHT22;8691;50.828;4.700;2022-07-09T04:49:40;16.60;99.90
17152;DHT22;8691;50.828;4.700;2022-07-09T04:52:07;16.60;99.90
17152;DHT22;8691;50.828;4.700;2022-07-09T04:54:34;16.60;99.90
17152;DHT22;8691;50.828;4.700;2022-07-09T04:57:00;16.60;99.90
17152;DHT22;8691;50.828;4.700;2022-07-09T04:59:28;16.70;99.90
17152;DHT22;8691;50.828;4.700;2022-07-09T05:01:54;16.60;99.90
17152;DHT22;8691;50.828;4.700;2022-07-09T05:04:22;16.80;99.90
17152;DHT22;8691;50.828;4.700;2022-07-09T05:06:48;16.80;99.90
17152;DHT22;8691;50.828;4.700;2022-07-09T05:09:16;17.20;99.90
17152;DHT22;8691;50.828;4.700;2022-07-09T05:11:42;17.10;99.90
17152;DHT22;8691;50.828;4.700;2022-07-09T05:14:10;17.40;99.90
17152;DHT22;8691;50.828;4.700;2022-07-09T05:16:36;17.40;99.90
17152;DHT22;8691;50.828;4.700;2022-07-09T05:19:04;17.60;99.90
17152;DHT22;8691;50.828;4.700;2022-07-09T05:21:30;17.60;99.90
17152;DHT22;8691;50.828;4.700;2022-07-09T05:23:57;17.80;99.90
17152;DHT22;8691;50.828;4.700;2022-07-09T05:26:24;18.00;99.90
17152;DHT22;8691;50.828;4.700;2022-07-09T05:28:50;18.10;99.90
17152;DHT22;8691;50.828;4.700;2022-07-09T05:31:17;18.20;99.90
17152;DHT22;8691;50.828;4.700;2022-07-09T05:33:43;18.60;99.90
17152;DHT22;8691;50.828;4.700;2022-07-09T05:36:10;19.90;99.90
17152;DHT22;8691;50.828;4.700;2022-07-09T05:38:37;22.20;99.90
17152;DHT22;8691;50.828;4.700;2022-07-09T05:41:04;24.60;99.90
17152;DHT22;8691;50.828;4.700;2022-07-09T05:43:31;26.60;97.50
17152;DHT22;8691;50.828;4.700;2022-07-09T05:45:58;29.10;92.70
17152;DHT22;8691;50.828;4.700;2022-07-09T05:48:26;29.00;92.70
17152;DHT22;8691;50.828;4.700;2022-07-09T05:50:53;28.90;90.70
17152;DHT22;8691;50.828;4.700;2022-07-09T05:53:20;28.90;90.70
17152;DHT22;8691;50.828;4.700;2022-07-09T05:55:48;28.80;91.40
17152;DHT22;8691;50.828;4.700;2022-07-09T05:58:14;28.80;91.20
17152;DHT22;8691;50.828;4.700;2022-07-09T06:00:41;28.90;91.00
17152;DHT22;8691;50.828;4.700;2022-07-09T06:03:09;29.90;88.60
17152;DHT22;8691;50.828;4.700;2022-07-09T06:05:36;29.90;88.60
17152;DHT22;8691;50.828;4.700;2022-07-09T06:08:04;30.50;84.90
17152;DHT22;8691;50.828;4.700;2022-07-09T06:10:31;31.00;83.30
17152;DHT22;8691;50.828;4.700;2022-07-09T06:12:57;31.90;80.40
17152;DHT22;8691;50.828;4.700;2022-07-09T06:15:25;32.40;77.50
17152;DHT22;8691;50.828;4.700;2022-07-09T06:17:52;32.30;77.40
17152;DHT22;8691;50.828;4.700;2022-07-09T06:20:19;33.00;75.00
17152;DHT22;8691;50.828;4.700;2022-07-09T06:22:46;33.10;75.10
17152;DHT22;8691;50.828;4.700;2022-07-09T06:25:13;33.20;75.30
17152;DHT22;8691;50.828;4.700;2022-07-09T06:27:40;33.80;72.90
17152;DHT22;8691;50.828;4.700;2022-07-09T06:30:08;34.00;72.30
17152;DHT22;8691;50.828;4.700;2022-07-09T06:32:35;34.00;72.30
17152;DHT22;8691;50.828;4.700;2022-07-09T06:35:03;34.60;69.70
17152;DHT22;8691;50.828;4.700;2022-07-09T06:37:31;35.20;67.90
17152;DHT22;8691;50.828;4.700;2022-07-09T06:39:58;35.20;67.90
17152;DHT22;8691;50.828;4.700;2022-07-09T06:42:25;35.90;65.20
17152;DHT22;8691;50.828;4.700;2022-07-09T06:44:52;35.20;64.90
17152;DHT22;8691;50.828;4.700;2022-07-09T06:47:19;34.40;68.40
17152;DHT22;8691;50.828;4.700;2022-07-09T06:49:46;34.80;66.00
17152;DHT22;8691;50.828;4.700;2022-07-09T06:52:13;35.00;64.60
17152;DHT22;8691;50.828;4.700;2022-07-09T06:54:40;34.40;66.00
17152;DHT22;8691;50.828;4.700;2022-07-09T06:57:07;34.00;66.60
17152;DHT22;8691;50.828;4.700;2022-07-09T06:59:34;33.60;67.40
17152;DHT22;8691;50.828;4.700;2022-07-09T07:02:01;31.80;71.20
17152;DHT22;8691;50.828;4.700;2022-07-09T07:04:29;30.50;74.60
17152;DHT22;8691;50.828;4.700;2022-07-09T07:06:56;30.40;74.60
17152;DHT22;8691;50.828;4.700;2022-07-09T07:09:24;29.70;79.40
17152;DHT22;8691;50.828;4.700;2022-07-09T07:11:51;29.70;78.90
17152;DHT22;8691;50.828;4.700;2022-07-09T07:14:19;29.10;79.30
17152;DHT22;8691;50.828;4.700;2022-07-09T07:16:47;29.00;79.20
17152;DHT22;8691;50.828;4.700;2022-07-09T07:19:14;29.40;83.80
17152;DHT22;8691;50.828;4.700;2022-07-09T07:21:41;29.40;83.80
17152;DHT22;8691;50.828;4.700;2022-07-09T07:24:09;30.20;78.90
17152;DHT22;8691;50.828;4.700;2022-07-09T07:26:36;30.90;79.50
17152;DHT22;8691;50.828;4.700;2022-07-09T07:29:02;31.70;75.20
17152;DHT22;8691;50.828;4.700;2022-07-09T07:31:29;33.20;71.60
17152;DHT22;8691;50.828;4.700;2022-07-09T07:33:57;34.70;67.60
17152;DHT22;8691;50.828;4.700;2022-07-09T07:36:23;35.40;64.50
17152;DHT22;8691;50.828;4.700;2022-07-09T07:38:50;34.60;65.90
17152;DHT22;8691;50.828;4.700;2022-07-09T07:41:17;33.60;67.90
17152;DHT22;8691;50.828;4.700;2022-07-09T07:43:43;32.90;71.00
17152;DHT22;8691;50.828;4.700;2022-07-09T07:46:10;33.60;69.60
17152;DHT22;8691;50.828;4.700;2022-07-09T07:48:37;34.60;67.40
17152;DHT22;8691;50.828;4.700;2022-07-09T07:51:04;34.60;65.70
17152;DHT22;8691;50.828;4.700;2022-07-09T07:53:32;34.90;66.20
17152;DHT22;8691;50.828;4.700;2022-07-09T07:56:03;35.10;65.50
17152;DHT22;8691;50.828;4.700;2022-07-09T07:58:30;35.10;65.50
17152;DHT22;8691;50.828;4.700;2022-07-09T08:00:57;36.20;61.30
17152;DHT22;8691;50.828;4.700;2022-07-09T08:03:23;36.60;62.40
17152;DHT22;8691;50.828;4.700;2022-07-09T08:05:50;37.00;61.80
17152;DHT22;8691;50.828;4.700;2022-07-09T08:08:17;37.40;59.80
17152;DHT22;8691;50.828;4.700;2022-07-09T08:10:47;36.40;60.00
17152;DHT22;8691;50.828;4.700;2022-07-09T08:13:14;34.90;63.20
17152;DHT22;8691;50.828;4.700;2022-07-09T08:15:40;34.00;67.20
17152;DHT22;8691;50.828;4.700;2022-07-09T08:18:07;34.30;64.50
17152;DHT22;8691;50.828;4.700;2022-07-09T08:20:34;34.00;66.20
17152;DHT22;8691;50.828;4.700;2022-07-09T08:23:01;34.90;64.20
17152;DHT22;8691;50.828;4.700;2022-07-09T08:25:28;34.50;63.90
17152;DHT22;8691;50.828;4.700;2022-07-09T08:27:56;34.70;63.20
17152;DHT22;8691;50.828;4.700;2022-07-09T08:30:23;36.90;57.60
17152;DHT22;8691;50.828;4.700;2022-07-09T08:32:50;36.90;57.60
17152;DHT22;8691;50.828;4.700;2022-07-09T08:35:18;36.70;58.90
17152;DHT22;8691;50.828;4.700;2022-07-09T08:37:45;36.20;57.30
17152;DHT22;8691;50.828;4.700;2022-07-09T08:40:12;35.30;59.10
17152;DHT22;8691;50.828;4.700;2022-07-09T08:42:39;35.60;58.60
17152;DHT22;8691;50.828;4.700;2022-07-09T08:45:07;35.50;58.00
17152;DHT22;8691;50.828;4.700;2022-07-09T08:47:33;35.60;57.00
17152;DHT22;8691;50.828;4.700;2022-07-09T08:49:59;34.60;59.50
17152;DHT22;8691;50.828;4.700;2022-07-09T08:52:26;34.50;59.90
17152;DHT22;8691;50.828;4.700;2022-07-09T08:54:54;34.90;58.00
17152;DHT22;8691;50.828;4.700;2022-07-09T08:57:21;34.80;58.00
17152;DHT22;8691;50.828;4.700;2022-07-09T08:59:49;32.80;62.30
17152;DHT22;8691;50.828;4.700;2022-07-09T09:02:17;32.80;62.30
17152;DHT22;8691;50.828;4.700;2022-07-09T09:04:45;32.00;65.30
17152;DHT22;8691;50.828;4.700;2022-07-09T09:07:18;32.00;65.30
17152;DHT22;8691;50.828;4.700;2022-07-09T09:09:45;32.90;64.40
17152;DHT22;8691;50.828;4.700;2022-07-09T09:12:12;33.70;62.50
17152;DHT22;8691;50.828;4.700;2022-07-09T09:14:39;35.20;59.80
17152;DHT22;8691;50.828;4.700;2022-07-09T09:17:09;36.30;58.20
17152;DHT22;8691;50.828;4.700;2022-07-09T09:19:36;36.80;57.20
17152;DHT22;8691;50.828;4.700;2022-07-09T09:22:04;36.70;57.10
17152;DHT22;8691;50.828;4.700;2022-07-09T09:24:31;36.90;57.00
17152;DHT22;8691;50.828;4.700;2022-07-09T09:26:58;36.60;57.20
17152;DHT22;8691;50.828;4.700;2022-07-09T09:29:25;36.10;58.40
17152;DHT22;8691;50.828;4.700;2022-07-09T09:31:52;35.50;59.60
17152;DHT22;8691;50.828;4.700;2022-07-09T09:34:19;35.20;59.00
17152;DHT22;8691;50.828;4.700;2022-07-09T09:36:47;33.90;60.80
17152;DHT22;8691;50.828;4.700;2022-07-09T09:39:14;33.00;62.60
17152;DHT22;8691;50.828;4.700;2022-07-09T09:41:41;32.40;64.80
17152;DHT22;8691;50.828;4.700;2022-07-09T09:44:08;33.00;64.60
17152;DHT22;8691;50.828;4.700;2022-07-09T09:46:37;33.40;63.40
17152;DHT22;8691;50.828;4.700;2022-07-09T09:49:07;32.80;64.20
17152;DHT22;8691;50.828;4.700;2022-07-09T09:52:22;32.90;64.90
17152;DHT22;8691;50.828;4.700;2022-07-09T09:54:03;33.70;63.40
17152;DHT22;8691;50.828;4.700;2022-07-09T09:56:30;34.90;60.90
17152;DHT22;8691;50.828;4.700;2022-07-09T09:58:58;34.90;60.90
17152;DHT22;8691;50.828;4.700;2022-07-09T10:01:25;35.10;60.90
17152;DHT22;8691;50.828;4.700;2022-07-09T10:03:53;35.50;59.00
17152;DHT22;8691;50.828;4.700;2022-07-09T10:06:19;34.90;60.30
17152;DHT22;8691;50.828;4.700;2022-07-09T10:08:46;35.10;60.70
17152;DHT22;8691;50.828;4.700;2022-07-09T10:11:13;35.10;61.00
17152;DHT22;8691;50.828;4.700;2022-07-09T10:13:55;35.40;60.60
17152;DHT22;8691;50.828;4.700;2022-07-09T10:16:37;35.60;59.90
17152;DHT22;8691;50.828;4.700;2022-07-09T10:19:04;33.70;63.50
17152;DHT22;8691;50.828;4.700;2022-07-09T10:21:32;33.70;63.50
17152;DHT22;8691;50.828;4.700;2022-07-09T10:23:59;32.60;65.40
17152;DHT22;8691;50.828;4.700;2022-07-09T10:29:22;31.90;66.60
17152;DHT22;8691;50.828;4.700;2022-07-09T10:31:48;31.50;69.60
17152;DHT22;8691;50.828;4.700;2022-07-09T10:34:53;32.30;66.50
17152;DHT22;8691;50.828;4.700;2022-07-09T10:37:18;32.10;66.50
17152;DHT22;8691;50.828;4.700;2022-07-09T10:39:54;32.10;66.20
17152;DHT22;8691;50.828;4.700;2022-07-09T10:42:22;31.00;69.70
17152;DHT22;8691;50.828;4.700;2022-07-09T10:44:49;31.00;69.70
17152;DHT22;8691;50.828;4.700;2022-07-09T10:47:17;30.80;70.20
17152;DHT22;8691;50.828;4.700;2022-07-09T10:49:44;30.90;70.10
17152;DHT22;8691;50.828;4.700;2022-07-09T10:52:11;31.30;70.90
17152;DHT22;8691;50.828;4.700;2022-07-09T10:54:47;31.10;70.70
17152;DHT22;8691;50.828;4.700;2022-07-09T10:57:14;31.10;71.20
17152;DHT22;8691;50.828;4.700;2022-07-09T10:59:46;30.70;73.80
17152;DHT22;8691;50.828;4.700;2022-07-09T11:02:22;30.50;74.20
17152;DHT22;8691;50.828;4.700;2022-07-09T11:04:49;30.30;76.40
17152;DHT22;8691;50.828;4.700;2022-07-09T11:07:19;30.50;76.60
17152;DHT22;8691;50.828;4.700;2022-07-09T11:09:46;30.60;74.80
17152;DHT22;8691;50.828;4.700;2022-07-09T11:12:17;30.60;77.00
17152;DHT22;8691;50.828;4.700;2022-07-09T11:14:47;30.50;76.20
17152;DHT22;8691;50.828;4.700;2022-07-09T11:17:16;30.60;74.30
17152;DHT22;8691;50.828;4.700;2022-07-09T11:19:43;30.70;74.50
17152;DHT22;8691;50.828;4.700;2022-07-09T11:22:10;30.90;74.60
17152;DHT22;8691;50.828;4.700;2022-07-09T11:24:38;31.00;75.10
17152;DHT22;8691;50.828;4.700;2022-07-09T11:27:05;30.90;76.10
17152;DHT22;8691;50.828;4.700;2022-07-09T11:29:32;31.00;75.40
17152;DHT22;8691;50.828;4.700;2022-07-09T11:31:59;31.10;73.60
17152;DHT22;8691;50.828;4.700;2022-07-09T11:34:25;31.10;73.90
17152;DHT22;8691;50.828;4.700;2022-07-09T11:36:56;31.00;73.60
17152;DHT22;8691;50.828;4.700;2022-07-09T11:39:26;29.60;77.90
17152;DHT22;8691;50.828;4.700;2022-07-09T11:41:53;29.50;77.80
17152;DHT22;8691;50.828;4.700;2022-07-09T11:44:20;29.50;78.70
17152;DHT22;8691;50.828;4.700;2022-07-09T11:47:07;28.20;81.70
17152;DHT22;8691;50.828;4.700;2022-07-09T11:49:40;28.20;81.70
17152;DHT22;8691;50.828;4.700;2022-07-09T11:54:58;28.60;80.10
17152;DHT22;8691;50.828;4.700;2022-07-09T11:57:26;28.50;79.30
17152;DHT22;8691;50.828;4.700;2022-07-09T11:59:52;28.40;79.00
17152;DHT22;8691;50.828;4.700;2022-07-09T12:02:30;28.10;81.00
17152;DHT22;8691;50.828;4.700;2022-07-09T12:04:50;28.10;81.80
17152;DHT22;8691;50.828;4.700;2022-07-09T12:07:17;28.30;81.40
17152;DHT22;8691;50.828;4.700;2022-07-09T12:09:44;28.80;79.20
17152;DHT22;8691;50.828;4.700;2022-07-09T12:12:12;28.80;79.10
17152;DHT22;8691;50.828;4.700;2022-07-09T12:14:39;28.60;78.50
17152;DHT22;8691;50.828;4.700;2022-07-09T12:17:06;28.30;77.70
17152;DHT22;8691;50.828;4.700;2022-07-09T12:19:33;28.00;80.20
17152;DHT22;8691;50.828;4.700;2022-07-09T12:22:01;27.90;77.90
17152;DHT22;8691;50.828;4.700;2022-07-09T12:24:27;27.90;78.00
17152;DHT22;8691;50.828;4.700;2022-07-09T12:26:54;28.30;79.30
17152;DHT22;8691;50.828;4.700;2022-07-09T12:29:22;28.80;76.90
17152;DHT22;8691;50.828;4.700;2022-07-09T12:31:49;28.80;76.90
17152;DHT22;8691;50.828;4.700;2022-07-09T12:34:16;28.60;78.20
17152;DHT22;8691;50.828;4.700;2022-07-09T12:36:43;28.60;77.60
17152;DHT22;8691;50.828;4.700;2022-07-09T12:39:10;28.30;77.50
17152;DHT22;8691;50.828;4.700;2022-07-09T12:41:38;27.90;77.40
17152;DHT22;8691;50.828;4.700;2022-07-09T12:44:05;27.30;77.60
17152;DHT22;8691;50.828;4.700;2022-07-09T12:46:32;26.90;79.40
17152;DHT22;8691;50.828;4.700;2022-07-09T12:48:59;26.70;81.30
17152;DHT22;8691;50.828;4.700;2022-07-09T12:51:26;26.80;81.30
17152;DHT22;8691;50.828;4.700;2022-07-09T12:53:53;27.00;82.00
17152;DHT22;8691;50.828;4.700;2022-07-09T12:56:20;27.10;79.10
17152;DHT22;8691;50.828;4.700;2022-07-09T12:58:46;27.40;79.20
17152;DHT22;8691;50.828;4.700;2022-07-09T13:01:13;28.00;77.80
17152;DHT22;8691;50.828;4.700;2022-07-09T13:03:41;28.70;76.70
17152;DHT22;8691;50.828;4.700;2022-07-09T13:06:08;28.80;75.20
17152;DHT22;8691;50.828;4.700;2022-07-09T13:08:52;28.30;76.90
17152;DHT22;8691;50.828;4.700;2022-07-09T13:11:19;27.90;77.20
17152;DHT22;8691;50.828;4.700;2022-07-09T13:13:47;27.80;76.80
17152;DHT22;8691;50.828;4.700;2022-07-09T13:16:14;27.60;78.00
17152;DHT22;8691;50.828;4.700;2022-07-09T13:18:41;27.00;80.20
17152;DHT22;8691;50.828;4.700;2022-07-09T13:21:08;26.90;79.90
17152;DHT22;8691;50.828;4.700;2022-07-09T13:23:35;26.40;80.30
17152;DHT22;8691;50.828;4.700;2022-07-09T13:26:02;26.40;80.30
17152;DHT22;8691;50.828;4.700;2022-07-09T13:28:29;26.20;82.20
17152;DHT22;8691;50.828;4.700;2022-07-09T13:30:55;26.30;83.40
17152;DHT22;8691;50.828;4.700;2022-07-09T13:33:23;27.10;81.20
17152;DHT22;8691;50.828;4.700;2022-07-09T13:35:50;27.00;81.00
17152;DHT22;8691;50.828;4.700;2022-07-09T13:38:17;26.90;81.00
17152;DHT22;8691;50.828;4.700;2022-07-09T13:40:43;26.80;79.00
17152;DHT22;8691;50.828;4.700;2022-07-09T13:43:10;26.70;80.20
17152;DHT22;8691;50.828;4.700;2022-07-09T13:45:37;26.30;82.10
17152;DHT22;8691;50.828;4.700;2022-07-09T13:48:03;26.20;83.20
17152;DHT22;8691;50.828;4.700;2022-07-09T13:50:30;26.50;82.20
17152;DHT22;8691;50.828;4.700;2022-07-09T13:52:57;26.30;81.90
17152;DHT22;8691;50.828;4.700;2022-07-09T13:55:24;26.00;83.30
17152;DHT22;8691;50.828;4.700;2022-07-09T13:57:51;26.00;83.30
17152;DHT22;8691;50.828;4.700;2022-07-09T14:00:18;25.70;81.50
17152;DHT22;8691;50.828;4.700;2022-07-09T14:02:45;25.70;81.50
17152;DHT22;8691;50.828;4.700;2022-07-09T14:05:12;25.30;83.00
17152;DHT22;8691;50.828;4.700;2022-07-09T14:07:39;25.30;83.00
17152;DHT22;8691;50.828;4.700;2022-07-09T14:10:06;25.00;84.80
17152;DHT22;8691;50.828;4.700;2022-07-09T14:12:33;25.00;84.80
17152;DHT22;8691;50.828;4.700;2022-07-09T14:14:59;24.80;83.90
17152;DHT22;8691;50.828;4.700;2022-07-09T14:17:27;25.00;82.30
17152;DHT22;8691;50.828;4.700;2022-07-09T14:19:53;25.00;82.30
17152;DHT22;8691;50.828;4.700;2022-07-09T14:22:21;25.00;83.70
17152;DHT22;8691;50.828;4.700;2022-07-09T14:24:47;25.00;83.60
17152;DHT22;8691;50.828;4.700;2022-07-09T14:27:15;25.10;81.30
17152;DHT22;8691;50.828;4.700;2022-07-09T14:29:41;25.10;81.30
17152;DHT22;8691;50.828;4.700;2022-07-09T14:32:09;25.00;80.70
17152;DHT22;8691;50.828;4.700;2022-07-09T14:34:35;25.00;80.60
17152;DHT22;8691;50.828;4.700;2022-07-09T14:37:03;24.90;80.00
17152;DHT22;8691;50.828;4.700;2022-07-09T14:39:29;24.90;80.00
17152;DHT22;8691;50.828;4.700;2022-07-09T14:41:56;25.10;79.80
17152;DHT22;8691;50.828;4.700;2022-07-09T14:44:22;25.20;80.50
17152;DHT22;8691;50.828;4.700;2022-07-09T14:46:49;25.30;79.00
17152;DHT22;8691;50.828;4.700;2022-07-09T14:49:16;25.20;78.60
17152;DHT22;8691;50.828;4.700;2022-07-09T14:51:43;25.20;78.50
17152;DHT22;8691;50.828;4.700;2022-07-09T14:54:09;25.30;77.30
17152;DHT22;8691;50.828;4.700;2022-07-09T14:56:37;24.80;82.20
17152;DHT22;8691;50.828;4.700;2022-07-09T14:59:03;24.80;82.20
17152;DHT22;8691;50.828;4.700;2022-07-09T15:01:30;24.60;79.90
17152;DHT22;8691;50.828;4.700;2022-07-09T15:03:57;24.70;80.60
17152;DHT22;8691;50.828;4.700;2022-07-09T15:06:23;24.70;80.30
17152;DHT22;8691;50.828;4.700;2022-07-09T15:08:50;24.50;80.90
17152;DHT22;8691;50.828;4.700;2022-07-09T15:11:17;24.50;82.40
17152;DHT22;8691;50.828;4.700;2022-07-09T15:13:44;24.40;80.60
17152;DHT22;8691;50.828;4.700;2022-07-09T15:16:10;24.40;80.60
17152;DHT22;8691;50.828;4.700;2022-07-09T15:18:37;24.40;80.60
17152;DHT22;8691;50.828;4.700;2022-07-09T15:21:04;24.50;80.00
17152;DHT22;8691;50.828;4.700;2022-07-09T15:23:31;24.30;80.00
17152;DHT22;8691;50.828;4.700;2022-07-09T15:25:57;24.50;81.40
17152;DHT22;8691;50.828;4.700;2022-07-09T15:28:25;24.60;79.60
17152;DHT22;8691;50.828;4.700;2022-07-09T15:30:51;24.50;79.50
17152;DHT22;8691;50.828;4.700;2022-07-09T15:33:19;24.50;79.00
17152;DHT22;8691;50.828;4.700;2022-07-09T15:35:45;24.50;79.00
17152;DHT22;8691;50.828;4.700;2022-07-09T15:38:13;24.10;80.50
17152;DHT22;8691;50.828;4.700;2022-07-09T15:40:39;24.10;80.40
17152;DHT22;8691;50.828;4.700;2022-07-09T15:43:07;24.10;79.70
17152;DHT22;8691;50.828;4.700;2022-07-09T15:45:33;24.00;79.70
17152;DHT22;8691;50.828;4.700;2022-07-09T15:48:01;23.90;81.80
17152;DHT22;8691;50.828;4.700;2022-07-09T15:50:27;23.90;81.80
17152;DHT22;8691;50.828;4.700;2022-07-09T15:52:55;23.90;82.00
17152;DHT22;8691;50.828;4.700;2022-07-09T15:55:21;23.90;82.00
17152;DHT22;8691;50.828;4.700;2022-07-09T15:57:49;24.10;79.70
17152;DHT22;8691;50.828;4.700;2022-07-09T16:00:15;24.00;79.70
17152;DHT22;8691;50.828;4.700;2022-07-09T16:02:43;24.00;79.30
17152;DHT22;8691;50.828;4.700;2022-07-09T16:05:09;24.00;79.30
17152;DHT22;8691;50.828;4.700;2022-07-09T16:07:37;23.50;80.80
17152;DHT22;8691;50.828;4.700;2022-07-09T16:10:03;23.50;80.80